METAR AND TAF INFORMATION
METAR FOR LEMG
ADDS - METARS form results

(0018 UTC 29 January 2023)
Data provider http://aviationweather.gov/metar/data/
 
METAR text: LEMG 290000Z 29008KT CAVOK 04/01 Q1021 NOSIG
Conditions at: LEMG (MALAGA (CIV/MIL), ES) observed 0000 UTC 29 January 2023
Temperature: 4.0°C (39°F)
Dewpoint: 1.0°C (34°F) [RH = 81%]
Pressure (altimeter): 30.15 inches Hg (1021.0 mb)
Winds: from the WNW (290 degrees) at 9 MPH (8 knots; 4.1 m/s)
Visibility: 6 or more miles (10+ km)
Ceiling: ceiling and visibility are OK
Clouds: unknown
Weather: no significant weather observed at this time

METAR text: LEMG 282330Z 30008KT CAVOK 04/01 Q1021 NOSIG
Conditions at: LEMG (MALAGA (CIV/MIL), ES) observed 2330 UTC 28 January 2023
Temperature: 4.0°C (39°F)
Dewpoint: 1.0°C (34°F) [RH = 81%]
Pressure (altimeter): 30.15 inches Hg (1021.0 mb)
Winds: from the WNW (300 degrees) at 9 MPH (8 knots; 4.1 m/s)
Visibility: 6 or more miles (10+ km)
Ceiling: ceiling and visibility are OK
Clouds: unknown
Weather: no significant weather observed at this time

Forecast for: LEMG (MALAGA (CIV/MIL), ES)
Text: TAF LEMG 282300Z 2900/2924 29006KT CAVOK TX13/2915Z TN07/2906Z
Forecast period: 0000 to 1000 UTC 29 January 2023
Forecast type: FROM: standard forecast or significant change
Winds: from the WNW (290 degrees) at 7 MPH (6 knots; 3.1 m/s)
Visibility: 6 or more miles (10+ km)
Ceiling: unknown
Clouds: missing
Weather: no significant weather forecast for this period
Text: BECMG 2910/2912 12010KT
Forecast period: 1000 UTC 29 January 2023 to 0000 UTC 30 January 2023
Forecast type: BECOMING: Conditions expected to become as follows by 1200 UTC 29 January 2023
Winds: from the ESE (120 degrees) at 12 MPH (10 knots; 5.1 m/s)
Visibility: 6 or more miles (10+ km)
Ceiling: unknown
Clouds: missing
Weather: no significant weather forecast for this period

 AIRPORT MAP

 RUNWAY INFORMATION
Runway 13 Runway length 10500 ft Runway width 148 ft
Runway elevation 52 ft Runway displaced threshold 0 ft Runway heading 133
Runway 31 Runway length 10500 ft Runway width 148 ft
Runway elevation 31 ft Runway displaced threshold 0 ft Runway heading 313
Runway 12 Runway length 9022 ft Runway width 148 ft
Runway elevation 52 ft Runway displaced threshold 0 ft Runway heading 119
Runway 30 Runway length 9022 ft Runway width 148 ft
Runway elevation 31 ft Runway displaced threshold 0 ft Runway heading 299

 AIRPORT FREQUENCIES
Type A/D Name APP Frequency 123.85 MHZ
Type ATIS Name ATIS Frequency 120.375 MHZ
Type CLD Name CLR DEL Frequency 121.875 MHZ
Type GND Name GND-W Frequency 121.7 MHZ
Type TWR Name TWR-W (RWY Frequency 118.15 MHZ
Type TWR Name TWR-E (RWY Frequency 118.775 MHZ
Type GND Name GND-E Frequency 121.95 MHZ

 AIRPORT NEAR NAVIGATION AIDS
Type VOR-DME Name Martin Frequency 112600 KHZ
Type VOR-DME Name Malaga Frequency 112000 KHZ
Type VOR-DME Name Malaga Frequency 113550 KHZ
Type NDB Name Malaga Frequency 330 KHZ